»·PEaware :: N9875 KPSP-KSBP

N9875 :: KPSP-KSBP

FLIGHT INFORMATION

Flight Status: Arrived
Operator: Privately registered:
United States
More flights under this callsign
Pilot: Brad M. (22842)
Aircraft: PILATUS PC-12 EAGLE
(PC12)
More flights by this aircraft type
Origin: KPSP Palm Springs Intl
United States
Destination: KSBP San Luis Co Regl
United States
More flights between these airports :: More routes between these airports
Route: +CATH1 PSP PMD RZS MQO
File this flight plan on PilotEdge
Remarks:
Altitude:
(Current/Filed)
10,000ft
Speed:
(Current/Filed)
250kts
Departed: 06-Aug-19 04:42 PM
Arrived: 06-Aug-19 05:44 PM
Distance/Time
Traveled:
221nm/1:02
Distance/Time
To Go:
Arrived

Flight Plot

Page will automatically refresh every two minutes.

Flight plan parsing failed; only flown route is shown


Map Options




Map Legend


Flown Route
Filed Route
Departure Airport
Arrival Airport
Navaid (VOR, NDB)
Fix

Horizontal Profiles

Position Reports

Time Latitude Longitude Heading Altitude Ground
Speed
06-Aug-19 16:31 33.825396 -116.509751 357 481ft 0kts
06-Aug-19 16:32 33.825396 -116.509751 357 481ft 0kts
06-Aug-19 16:33 33.825396 -116.509751 357 481ft 0kts
06-Aug-19 16:34 33.825396 -116.509751 357 481ft 0kts
06-Aug-19 16:35 33.825396 -116.509751 357 481ft 0kts
06-Aug-19 16:36 33.825342 -116.508486 89 481ft 0kts
06-Aug-19 16:37 33.826138 -116.506882 16 481ft 9kts
06-Aug-19 16:38 33.828449 -116.508592 324 481ft 13kts
06-Aug-19 16:39 33.831735 -116.511616 325 481ft 13kts
06-Aug-19 16:40 33.833259 -116.510847 130 481ft 0kts
06-Aug-19 16:41 33.821607 -116.500266 141 782ft 126kts
06-Aug-19 16:42 33.804106 -116.452174 110 2263ft 197kts
06-Aug-19 16:43 33.815173 -116.387729 54 4338ft 229kts
06-Aug-19 16:44 33.825427 -116.320729 120 6501ft 208kts
06-Aug-19 16:45 33.823306 -116.253169 60 8526ft 223kts
06-Aug-19 16:46 33.877966 -116.223325 353 10511ft 231kts
06-Aug-19 16:47 33.939073 -116.241457 310 12339ft 228kts
06-Aug-19 16:48 33.968133 -116.313702 293 13159ft 253kts
06-Aug-19 16:49 33.997498 -116.389856 293 14001ft 260kts
06-Aug-19 16:50 34.029171 -116.471429 293 14000ft 272kts
06-Aug-19 16:51 34.061500 -116.554993 293 14000ft 274kts
06-Aug-19 16:52 34.093669 -116.638399 293 14014ft 274kts
06-Aug-19 16:53 34.125598 -116.721189 292 14061ft 263kts
06-Aug-19 16:54 34.156061 -116.800657 292 14109ft 256kts
06-Aug-19 16:55 34.186133 -116.879333 292 14092ft 257kts
06-Aug-19 16:56 34.216214 -116.958337 292 14126ft 257kts
06-Aug-19 16:57 34.246227 -117.037312 292 14148ft 257kts
06-Aug-19 16:58 34.276359 -117.116379 292 14128ft 258kts
06-Aug-19 16:59 34.306259 -117.195414 292 14125ft 257kts
06-Aug-19 17:00 34.336082 -117.274612 292 14125ft 257kts
06-Aug-19 17:01 34.365803 -117.353171 292 14131ft 256kts
06-Aug-19 17:02 34.395466 -117.432093 292 14126ft 256kts
06-Aug-19 17:03 34.425108 -117.510965 292 14127ft 257kts
06-Aug-19 17:04 34.454896 -117.590377 292 14126ft 257kts
06-Aug-19 17:05 34.484148 -117.669046 291 14129ft 259kts
06-Aug-19 17:06 34.514457 -117.750329 291 14127ft 269kts
06-Aug-19 17:07 34.545456 -117.833487 292 14126ft 270kts
06-Aug-19 17:08 34.576575 -117.917145 292 14124ft 271kts
06-Aug-19 17:09 34.607395 -118.001264 291 14118ft 271kts
06-Aug-19 17:10 34.629799 -118.087229 266 14114ft 266kts
06-Aug-19 17:11 34.624039 -118.176908 262 14109ft 265kts
06-Aug-19 17:12 34.617657 -118.266663 262 14109ft 266kts
06-Aug-19 17:13 34.611655 -118.356272 263 14109ft 266kts
06-Aug-19 17:14 34.618303 -118.445649 287 14109ft 271kts
06-Aug-19 17:15 34.644633 -118.531785 287 14109ft 271kts
06-Aug-19 17:16 34.669614 -118.618314 286 14110ft 271kts
06-Aug-19 17:17 34.694025 -118.704703 286 14110ft 271kts
06-Aug-19 17:18 34.718434 -118.791537 286 14110ft 271kts
06-Aug-19 17:19 34.742911 -118.878876 285 14103ft 272kts
06-Aug-19 17:20 34.767140 -118.965495 285 14085ft 272kts
06-Aug-19 17:21 34.791502 -119.053023 285 14091ft 272kts
06-Aug-19 17:22 34.815856 -119.140898 285 14091ft 275kts
06-Aug-19 17:23 34.840319 -119.229525 285 14090ft 275kts
06-Aug-19 17:24 34.864961 -119.318330 285 14091ft 276kts
06-Aug-19 17:25 34.889374 -119.407054 285 14090ft 275kts
06-Aug-19 17:26 34.913788 -119.496085 285 14090ft 276kts
06-Aug-19 17:27 34.937965 -119.584916 285 14092ft 275kts
06-Aug-19 17:28 34.962390 -119.673615 284 14094ft 275kts
06-Aug-19 17:29 34.986383 -119.762532 284 14093ft 276kts
06-Aug-19 17:30 35.010337 -119.851458 284 14092ft 275kts
06-Aug-19 17:31 35.034822 -119.940582 285 13226ft 270kts
06-Aug-19 17:32 35.057629 -120.025407 285 11428ft 262kts
06-Aug-19 17:33 35.079546 -120.107513 286 9626ft 248kts
06-Aug-19 17:34 35.100633 -120.185897 287 7923ft 233kts
06-Aug-19 17:35 35.120243 -120.259635 287 6211ft 227kts
06-Aug-19 17:36 35.139865 -120.333670 287 5003ft 219kts
06-Aug-19 17:37 35.157916 -120.401840 287 4999ft 206kts
06-Aug-19 17:38 35.175538 -120.468544 288 4918ft 206kts
06-Aug-19 17:39 35.190740 -120.534204 286 3007ft 167kts
06-Aug-19 17:40 35.203207 -120.575985 294 1617ft 124kts
06-Aug-19 17:41 35.218935 -120.608872 304 872ft 103kts
06-Aug-19 17:42 35.232612 -120.632748 305 244ft 78kts
06-Aug-19 17:43 35.237477 -120.639356 124 179ft 13kts
06-Aug-19 17:44 35.236729 -120.636355 350 179ft 6kts

Navigation Log

Ident Type
Flight plan parsing failed, navigation log unavailable